Main page
METAR-TAF:

METAR-TAF

Airports :

Noi Bai International Airport

Hanoi, Vietnam

latitude: 21-01N, longitude: 105-48E, elevation: 6 m

Current weather observation

The report was made 31 minutes ago, at 13:00 UTC
Wind 8 kt from the East
Temperature 30°C
Humidity 84%
Pressure 1000 hPa
Visibility: 8000 m

METAR: VVNB 201300Z 09008KT 8000 NSC 30/27 Q1000 NOSIG

Time: 20:31 (13:31 UTC)

Forecast

The report was made 2 hours and 31 minutes ago, at 11:00 UTC
Forecast valid from 20 at 12 UTC to 21 at 12 UTC
Wind 8 kt from the East/Southeast
Visibility: 8000 m
Few clouds at a height of 2000 ft
Becoming
from 20 at 21 UTC to 20 at 22 UTC
Visibility: 4000 m
mist
Becoming
from 21 at 01 UTC to 21 at 02 UTC
Visibility: 7000 m

TAF: VVNB 201100Z 2012/2112 12008KT 8000 FEW020 BECMG 2021/2022 4000 BR BECMG 2101/2102 7000 NSW

Weather observations and forecasts of more than 4000 airports (METAR and TAF reports).

The available stations are represented by yellow and red dots on the map.

Hover mouse over dot to see the name of the station.

Then click to see weather observations and forecasts.

To change the map : click on the green buttons with a black cross to zoom in, on the green button with a dash to zoom out, or on the green arrows for adjacent maps.


METAR-TAF: